createdAt,value
2022-09-05T00:04:24.224Z,21.37
2022-09-05T00:09:41.726Z,21.32
2022-09-05T00:15:16.459Z,21.27
2022-09-05T00:24:25.692Z,21.11
2022-09-05T00:25:53.101Z,21.12
2022-09-05T00:31:06.766Z,21.11
2022-09-05T00:36:27.263Z,20.93
2022-09-05T00:41:28.778Z,20.93
2022-09-05T00:46:37.271Z,20.82
2022-09-05T00:51:51.130Z,20.87
2022-09-05T00:57:12.932Z,20.70
2022-09-05T01:02:31.284Z,20.59
2022-09-05T01:07:46.799Z,20.56
2022-09-05T01:12:50.380Z,20.55
2022-09-05T01:17:54.447Z,20.50
2022-09-05T01:23:15.426Z,20.48
2022-09-05T01:29:16.145Z,20.57
2022-09-05T01:34:12.071Z,20.49
2022-09-05T01:40:14.574Z,20.44
2022-09-05T01:44:49.903Z,20.53
2022-09-05T01:49:55.082Z,20.39
2022-09-05T01:55:14.449Z,20.31
2022-09-05T02:00:15.861Z,20.37
2022-09-05T02:05:49.148Z,20.35
2022-09-05T02:11:01.837Z,20.17
2022-09-05T02:16:06.195Z,20.08
2022-09-05T02:21:26.212Z,20.05
2022-09-05T02:26:32.046Z,20.07
2022-09-05T02:31:39.439Z,20.05
2022-09-05T02:36:59.745Z,20.15
2022-09-05T02:42:09.461Z,20.28
2022-09-05T02:47:30.659Z,20.31
2022-09-05T02:57:26.385Z,20.35
2022-09-05T02:58:16.702Z,20.26
2022-09-05T03:03:21.164Z,20.21
2022-09-05T03:08:37.763Z,20.27
2022-09-05T03:13:53.839Z,20.20
2022-09-05T03:19:26.276Z,20.23
2022-09-05T03:24:41.602Z,20.14
2022-09-05T03:30:12.916Z,20.10
2022-09-05T03:35:32.846Z,20.06
2022-09-05T03:40:39.232Z,19.99
2022-09-05T03:45:55.755Z,19.89
2022-09-05T03:56:01.297Z,19.87
2022-09-05T03:57:16.381Z,19.89
2022-09-05T04:03:02.575Z,19.85
2022-09-05T04:08:15.589Z,19.85
2022-09-05T04:12:35.411Z,19.82
2022-09-05T04:17:42.443Z,19.76
2022-09-05T04:23:02.585Z,19.63
2022-09-05T04:28:10.005Z,19.50
2022-09-05T04:33:16.189Z,19.42
2022-09-05T04:38:19.044Z,19.43
2022-09-05T04:43:38.971Z,19.41
2022-09-05T04:48:49.522Z,19.32
2022-09-05T04:53:52.380Z,19.19
2022-09-05T05:02:27.065Z,19.02
2022-09-05T05:06:16.110Z,19.11
2022-09-05T05:09:44.971Z,19.12
2022-09-05T05:18:07.793Z,19.07
2022-09-05T05:20:44.041Z,19.05
2022-09-05T05:25:49.781Z,19.04
2022-09-05T05:30:51.455Z,19.04
2022-09-05T05:36:00.364Z,19.06
2022-09-05T05:41:14.709Z,19.13
2022-09-05T05:46:24.814Z,19.15
2022-09-05T05:52:01.739Z,19.24
2022-09-05T05:57:24.665Z,19.34
2022-09-05T06:03:12.011Z,19.49
2022-09-05T06:10:33.849Z,19.73
2022-09-05T06:14:59.033Z,19.92
2022-09-05T06:19:31.859Z,20.12
2022-09-05T06:25:16.436Z,20.27
2022-09-05T06:30:20.761Z,20.43
2022-09-05T06:35:31.380Z,20.61
2022-09-05T06:40:44.546Z,20.72
2022-09-05T06:46:04.299Z,20.86
2022-09-05T06:51:24.300Z,20.98
2022-09-05T06:56:26.724Z,21.12
2022-09-05T07:01:44.775Z,21.44
2022-09-05T07:07:06.466Z,21.62
2022-09-05T07:12:08.160Z,21.85
2022-09-05T07:17:13.043Z,21.88
2022-09-05T07:22:47.663Z,22.02
2022-09-05T07:28:28.950Z,22.36
2022-09-05T07:33:22.122Z,22.60
2022-09-05T07:38:50.222Z,22.87
2022-09-05T07:43:55.037Z,23.08
2022-09-05T07:49:00.661Z,22.87
2022-09-05T07:56:52.641Z,23.02
2022-09-05T07:59:33.549Z,23.01
2022-09-05T08:04:36.644Z,23.18
2022-09-05T08:10:06.979Z,23.48
2022-09-05T08:15:03.734Z,23.77
2022-09-05T08:20:22.762Z,24.36
2022-09-05T08:25:37.612Z,24.40
2022-09-05T08:30:59.771Z,24.49
2022-09-05T08:36:05.698Z,25.02
2022-09-05T08:41:16.277Z,25.00
2022-09-05T08:46:41.512Z,24.83
2022-09-05T08:51:55.479Z,24.82
2022-09-05T08:57:10.367Z,25.39
2022-09-05T09:02:48.148Z,25.99
2022-09-05T09:07:56.046Z,26.76
2022-09-05T09:13:16.309Z,26.66
2022-09-05T09:18:19.097Z,26.84
2022-09-05T09:23:39.651Z,26.27
2022-09-05T09:28:48.824Z,27.14
2022-09-05T09:34:01.402Z,28.37
2022-09-05T09:39:37.304Z,29.05
2022-09-05T09:44:50.026Z,28.30
2022-09-05T09:50:12.018Z,28.54
2022-09-05T09:55:28.653Z,28.27
2022-09-05T10:00:51.173Z,28.55
2022-09-05T10:10:53.554Z,30.21
2022-09-05T10:11:53.030Z,31.38
2022-09-05T10:16:53.406Z,31.72
2022-09-05T10:27:36.926Z,36.25
2022-09-05T10:35:15.103Z,35.56
2022-09-05T10:38:10.633Z,34.56
2022-09-05T10:43:18.782Z,36.05
2022-09-05T10:48:23.313Z,40.00
2022-09-05T10:53:42.808Z,41.32
2022-09-05T11:01:33.412Z,41.12
2022-09-05T11:04:37.188Z,41.02
2022-09-05T11:09:59.428Z,42.72
2022-09-05T11:15:05.218Z,37.46
2022-09-05T11:20:07.501Z,35.07
2022-09-05T11:25:36.909Z,40.49
2022-09-05T11:30:49.268Z,45.04
2022-09-05T11:40:07.046Z,46.21
2022-09-05T11:41:42.197Z,46.86
2022-09-05T11:47:30.144Z,47.95
2022-09-05T11:53:00.568Z,49.21
2022-09-05T11:58:53.798Z,43.90
2022-09-05T12:03:59.393Z,45.24
2022-09-05T12:09:23.639Z,48.15
2022-09-05T12:14:55.057Z,49.51
2022-09-05T12:20:00.016Z,49.69
2022-09-05T12:25:27.528Z,51.07
2022-09-05T12:31:29.625Z,51.12
2022-09-05T12:40:56.189Z,50.85
2022-09-05T12:42:14.545Z,50.01
2022-09-05T12:47:21.176Z,46.33
2022-09-05T12:52:36.154Z,44.07
2022-09-05T12:59:52.507Z,41.06
2022-09-05T13:03:29.162Z,38.65
2022-09-05T13:08:28.251Z,36.86
2022-09-05T13:14:52.850Z,35.35
2022-09-05T13:19:07.218Z,35.61
2022-09-05T13:24:27.535Z,36.05
2022-09-05T13:29:39.884Z,35.66
2022-09-05T13:38:10.676Z,35.68
2022-09-05T13:40:20.180Z,35.17
2022-09-05T13:45:22.807Z,34.49
2022-09-05T13:50:29.413Z,34.59
2022-09-05T13:55:45.556Z,34.69
2022-09-05T14:01:06.223Z,34.27
2022-09-05T14:06:37.823Z,33.76
2022-09-05T14:11:56.713Z,33.41
2022-09-05T14:22:46.047Z,32.89
2022-09-05T14:27:48.910Z,32.30
2022-09-05T14:37:35.005Z,31.82
2022-09-05T14:38:43.276Z,31.90
2022-09-05T14:44:03.223Z,31.55
2022-09-05T14:49:18.139Z,31.19
2022-09-05T15:02:43.342Z,30.94
2022-09-05T15:05:13.253Z,30.88
2022-09-05T15:12:16.709Z,30.83
2022-09-05T15:16:02.930Z,30.61
2022-09-05T15:21:33.973Z,30.36
2022-09-05T15:26:46.648Z,30.20
2022-09-05T15:31:54.589Z,30.11
2022-09-05T15:37:22.504Z,29.93
2022-09-05T15:42:28.376Z,29.96
2022-09-05T15:47:29.718Z,29.97
2022-09-05T15:52:37.208Z,30.11
2022-09-05T15:57:40.436Z,30.16
2022-09-05T16:02:47.153Z,30.12
2022-09-05T16:10:29.230Z,30.05
2022-09-05T16:13:41.705Z,29.95
2022-09-05T16:23:25.482Z,29.89
2022-09-05T16:24:15.924Z,29.85
2022-09-05T16:29:26.634Z,29.87
2022-09-05T16:34:34.930Z,29.81
2022-09-05T16:39:44.045Z,29.77
2022-09-05T16:44:48.966Z,29.70
2022-09-05T16:49:59.660Z,29.59
2022-09-05T16:55:13.105Z,29.47
2022-09-05T17:00:14.368Z,29.29
2022-09-05T17:05:30.188Z,29.12
2022-09-05T17:10:43.766Z,28.91
2022-09-05T17:15:51.621Z,28.76
2022-09-05T17:20:55.874Z,28.61
2022-09-05T17:29:36.536Z,28.50
2022-09-05T17:31:53.688Z,28.36
2022-09-05T17:37:18.199Z,28.23
2022-09-05T17:42:30.463Z,28.09
2022-09-05T17:47:44.479Z,27.93
2022-09-05T17:53:26.996Z,27.80
2022-09-05T17:58:47.512Z,27.64
2022-09-05T18:03:51.753Z,27.49
2022-09-05T18:08:53.217Z,27.37
2022-09-05T18:19:32.121Z,27.11
2022-09-05T18:24:57.844Z,26.97
2022-09-05T18:30:18.272Z,26.85
2022-09-05T18:35:38.411Z,26.70
2022-09-05T18:40:53.311Z,26.56
2022-09-05T18:46:22.467Z,26.41
2022-09-05T18:51:28.023Z,26.24
2022-09-05T18:57:12.028Z,26.10
2022-09-05T19:02:41.094Z,26.13
2022-09-05T19:07:40.374Z,26.10
2022-09-05T19:12:54.181Z,26.06
2022-09-05T19:18:22.889Z,25.98
2022-09-05T19:23:26.144Z,25.88
2022-09-05T19:36:49.028Z,25.75
2022-09-05T19:37:02.641Z,25.65
2022-09-05T19:41:19.921Z,25.55
2022-09-05T19:47:37.386Z,25.40
2022-09-05T19:50:06.130Z,25.37
2022-09-05T19:55:18.162Z,25.31
2022-09-05T20:00:23.954Z,25.15
2022-09-05T20:05:25.489Z,24.96
2022-09-05T20:10:28.482Z,24.90
2022-09-05T20:15:36.774Z,24.84
2022-09-05T20:20:38.151Z,24.79
2022-09-05T20:25:47.946Z,24.73
2022-09-05T20:30:53.965Z,24.63
2022-09-05T20:37:24.058Z,24.54
2022-09-05T20:43:17.841Z,24.53
2022-09-05T20:54:02.283Z,24.52
2022-09-05T20:54:17.178Z,24.49
2022-09-05T20:57:36.463Z,24.43
2022-09-05T21:02:47.933Z,24.34
2022-09-05T21:08:06.837Z,24.26
2022-09-05T21:13:09.173Z,24.26
2022-09-05T21:18:16.145Z,24.18
2022-09-05T21:23:21.508Z,24.13
2022-09-05T21:28:24.229Z,24.10
2022-09-05T21:33:45.054Z,24.08
2022-09-05T21:38:47.613Z,24.00
2022-09-05T21:47:35.295Z,23.90
2022-09-05T21:49:11.063Z,23.85
2022-09-05T21:58:07.257Z,23.81
2022-09-05T21:59:46.096Z,23.78
2022-09-05T22:04:49.558Z,23.75
2022-09-05T22:09:50.837Z,23.71
2022-09-05T22:14:52.105Z,23.69
2022-09-05T22:19:53.479Z,23.64
2022-09-05T22:25:01.845Z,23.61
2022-09-05T22:30:06.133Z,23.53
2022-09-05T22:35:26.815Z,23.43
2022-09-05T22:40:30.682Z,23.35
2022-09-05T22:45:32.820Z,23.35
2022-09-05T22:50:34.072Z,23.32
2022-09-05T22:55:36.009Z,23.34
2022-09-05T23:00:37.612Z,23.32
2022-09-05T23:05:38.841Z,23.25
2022-09-05T23:10:40.086Z,23.17
2022-09-05T23:15:41.351Z,23.22
2022-09-05T23:20:42.676Z,23.17
2022-09-05T23:25:43.900Z,23.08
2022-09-05T23:30:45.232Z,23.14
2022-09-05T23:35:46.588Z,23.16
2022-09-05T23:40:47.828Z,23.09
2022-09-05T23:45:49.092Z,23.06
2022-09-05T23:50:50.953Z,23.03
2022-09-05T23:55:52.217Z,23.05
